Hauptseite
METAR-TAF:

METAR-TAF

Flughäfen :

Algier, Algerien

Flughafen Algier

Breite: 36-43N, Länge: 003-15E, Höhe: 25 m

Beobachtung

Neuester Wetterbericht von vor 17 Minuten, um 05:00 UTC
Windstille
Temperatur 7°C
Luftfeuchtigkeit 93%
Luftdruck 1017 hPa
Sichtweite 10 km oder mehr
keine Wolken unter 1500 m und keine Kumulonimbus oder Gewitterwolken

METAR: DAAG 260500Z 00000KT CAVOK 07/06 Q1017

Zeit: 06:17 (05:17 UTC)

Prognose

Neuester Wetterbericht von vor 6 Stunden und 17 Minuten, um 23:00 UTC
Gültige Prognose vom 26 um 00 UTC bis 26 um 24 UTC
Wind 2 kt aus unterschiedlichen Richtungen
Sichtweite 10 km oder mehr
keine Wolken unter 1500 m und keine Kumulonimbus oder Gewitterwolken
Wahrscheinlichkeit 30% :
Zeitweise
vom 26 um 01 UTC bis 26 um 06 UTC
Sichtweite: 3000 m
feuchter Dunst

TAF: DAAG 252300Z 2600/2624 VRB02KT CAVOK PROB30 TEMPO 2601/2606 3000 BR

Wetterbeobachtungen und Prognosen von mehr als 4000 Flughäfen (METAR und TAF Bericht).

Die verfügbaren Stationen werden durch gelbe und rote Markierungen auf der Karte dargestellt.

Führen Sie die Maus auf sie, um den Namen der Station zu sehen.

Darauf klicken, um die Beobachtung von Wetterbeobachtungen und Prognosen zu sehen.

Um die Karte zu ändern : klicken Sie auf den grünen Tasten mit einem schwarzen Kreuz Zum Vergrößern, auf den grünen Button mit einem Gedankenstrich zu verkleinern, oder auf die grünen Pfeile für benachbarte Karten.


METAR-TAF: